PWSweather.com
Personal Weather Stations
Station Observations
KCOBOOMER
Belmont, Pueblo, CO 81001

BelmontPueblo, CO 81001

Lat: 38.2977486, Lon: -104.5754318

Elevation: 4795

Station Type: Davis Vantage Pro 2

http://www.puebloweather.net

Latest ConditionsUpdated 8:20:03 PM MDT Friday, May 29, 2015
Currently Today's Max Today's Min Today's Average
Temperature 61.6°F16.4°C 76.0°F24.4°C 50.2°F10.1°C 62.8°F17.1°C
Dew Point 46.2°F7.9°C 51.2°F10.7°C 42.1°F5.6°C 46.7°F8.2°C
Winds 33.0 mph NNW53.1 kmh NNW 40.0 mph N64.4 kmh N - 7.8 mph 12.6 kmh
Wind Gusts 33.0 mph53.1 kmh 43.0 mph69.2 kmh - -
Humidity 57% 88% 33% 60%
Pressure 30.00 in1015.9 mb 30.00 in1015.9 mb 29.88 in1011.9 mb -
Hour Temp Dew Point Humidity Winds Wind Gusts Pressure Precip Precip Rate Daily Precip Total
08:20 PM 61.6°F16.4°C 46.2°F7.9°C 57% 33.0 mph NNW53.1 kmh NNW 33.0 mph53.1 kmh 30.00 in1015.9 mb 0.00 in0.0 mm 0.00 in0.0 mm 0.00 in0.0 mm
08:15 PM 61.9°F16.6°C 45.6°F7.6°C 55% 28.0 mph N45.1 kmh N 40.0 mph64.4 kmh 30.00 in1015.9 mb 0.00 in0.0 mm 0.00 in0.0 mm 0.00 in0.0 mm
08:10 PM 62.1°F16.7°C 46.2°F7.9°C 56% 18.0 mph N29.0 kmh N 25.0 mph40.2 kmh 29.99 in1015.6 mb 0.00 in0.0 mm 0.00 in0.0 mm 0.00 in0.0 mm
08:05 PM 62.4°F16.9°C 46.5°F8.1°C 56% 25.0 mph NNE40.2 kmh NNE 42.0 mph67.6 kmh 30.00 in1015.9 mb 0.00 in0.0 mm 0.00 in0.0 mm 0.00 in0.0 mm
08:00 PM 62.7°F17.1°C 46.8°F8.2°C 56% 9.0 mph N14.5 kmh N 28.0 mph45.1 kmh 29.99 in1015.6 mb 0.00 in0.0 mm 0.00 in0.0 mm 0.00 in0.0 mm
07:55 PM 62.9°F17.2°C 47.0°F8.3°C 56% 24.0 mph NW38.6 kmh NW 36.0 mph57.9 kmh 30.00 in1015.9 mb 0.00 in0.0 mm 0.00 in0.0 mm 0.00 in0.0 mm
07:50 PM 63.0°F17.2°C 47.1°F8.4°C 56% 35.0 mph NW56.3 kmh NW 35.0 mph56.3 kmh 30.00 in1015.9 mb 0.00 in0.0 mm 0.00 in0.0 mm 0.00 in0.0 mm
07:45 PM 63.3°F17.4°C 47.4°F8.6°C 56% 24.0 mph N38.6 kmh N 40.0 mph64.4 kmh 29.99 in1015.6 mb 0.00 in0.0 mm 0.00 in0.0 mm 0.00 in0.0 mm
07:40 PM 63.5°F17.5°C 46.6°F8.1°C 54% 40.0 mph N64.4 kmh N 40.0 mph64.4 kmh 29.98 in1015.2 mb 0.00 in0.0 mm 0.00 in0.0 mm 0.00 in0.0 mm
07:35 PM 63.9°F17.7°C 47.0°F8.3°C 54% 26.0 mph NW41.8 kmh NW 41.0 mph66.0 kmh 29.98 in1015.2 mb 0.00 in0.0 mm 0.00 in0.0 mm 0.00 in0.0 mm
07:30 PM 64.2°F17.9°C 46.7°F8.2°C 53% 17.0 mph NNW27.4 kmh NNW 26.0 mph41.8 kmh 29.97 in1014.9 mb 0.00 in0.0 mm 0.00 in0.0 mm 0.00 in0.0 mm
07:25 PM 64.5°F18.1°C 46.5°F8.1°C 52% 18.0 mph NE29.0 kmh NE 43.0 mph69.2 kmh 29.97 in1014.9 mb 0.00 in0.0 mm 0.00 in0.0 mm 0.00 in0.0 mm
07:20 PM 65.0°F18.3°C 46.5°F8.1°C 51% 18.0 mph N29.0 kmh N 23.0 mph37.0 kmh 29.97 in1014.9 mb 0.00 in0.0 mm 0.00 in0.0 mm 0.00 in0.0 mm
07:15 PM 65.8°F18.8°C 46.1°F7.8°C 49% 18.0 mph NNE29.0 kmh NNE 34.0 mph54.7 kmh 29.96 in1014.6 mb 0.00 in0.0 mm 0.00 in0.0 mm 0.00 in0.0 mm
07:10 PM 66.8°F19.3°C 45.9°F7.7°C 47% 21.0 mph NNE33.8 kmh NNE 32.0 mph51.5 kmh 29.96 in1014.6 mb 0.00 in0.0 mm 0.00 in0.0 mm 0.00 in0.0 mm
07:05 PM 67.2°F19.6°C 45.2°F7.3°C 45% 12.0 mph NW19.3 kmh NW 30.0 mph48.3 kmh 29.95 in1014.2 mb 0.00 in0.0 mm 0.00 in0.0 mm 0.00 in0.0 mm
07:00 PM 67.5°F19.7°C 45.4°F7.4°C 45% 14.0 mph N22.5 kmh N 19.0 mph30.6 kmh 29.95 in1014.2 mb 0.00 in0.0 mm 0.00 in0.0 mm 0.00 in0.0 mm
06:55 PM 68.1°F20.1°C 45.4°F7.4°C 44% 16.0 mph N25.7 kmh N 40.0 mph64.4 kmh 29.95 in1014.2 mb 0.00 in0.0 mm 0.00 in0.0 mm 0.00 in0.0 mm
06:50 PM 69.2°F20.7°C 45.8°F7.7°C 43% 18.0 mph N29.0 kmh N 30.0 mph48.3 kmh 29.95 in1014.2 mb 0.00 in0.0 mm 0.00 in0.0 mm 0.00 in0.0 mm
06:45 PM 70.3°F21.3°C 42.1°F5.6°C 36% 22.0 mph NNW35.4 kmh NNW 30.0 mph48.3 kmh 29.94 in1013.9 mb 0.00 in0.0 mm 0.00 in0.0 mm 0.00 in0.0 mm
06:40 PM 71.2°F21.8°C 42.9°F6.1°C 36% 8.0 mph NNW12.9 kmh NNW 19.0 mph30.6 kmh 29.93 in1013.5 mb 0.00 in0.0 mm 0.00 in0.0 mm 0.00 in0.0 mm
06:35 PM 71.8°F22.1°C 42.7°F5.9°C 35% 12.0 mph NNE19.3 kmh NNE 28.0 mph45.1 kmh 29.93 in1013.5 mb 0.00 in0.0 mm 0.00 in0.0 mm 0.00 in0.0 mm
06:30 PM 71.6°F22.0°C 44.0°F6.7°C 37% 9.0 mph N14.5 kmh N 14.0 mph22.5 kmh 29.92 in1013.2 mb 0.00 in0.0 mm 0.00 in0.0 mm 0.00 in0.0 mm
06:25 PM 71.7°F22.1°C 43.4°F6.3°C 36% 14.0 mph N22.5 kmh N 30.0 mph48.3 kmh 29.92 in1013.2 mb 0.00 in0.0 mm 0.00 in0.0 mm 0.00 in0.0 mm
06:20 PM 71.5°F21.9°C 43.9°F6.6°C 37% 17.0 mph N27.4 kmh N 22.0 mph35.4 kmh 29.92 in1013.2 mb 0.00 in0.0 mm 0.00 in0.0 mm 0.00 in0.0 mm
06:15 PM 71.6°F22.0°C 44.7°F7.1°C 38% 7.0 mph N11.3 kmh N 24.0 mph38.6 kmh 29.92 in1013.2 mb 0.00 in0.0 mm 0.00 in0.0 mm 0.00 in0.0 mm
06:10 PM 71.8°F22.1°C 45.5°F7.5°C 39% 11.0 mph N17.7 kmh N 18.0 mph29.0 kmh 29.92 in1013.2 mb 0.00 in0.0 mm 0.00 in0.0 mm 0.00 in0.0 mm
06:05 PM 72.2°F22.3°C 44.5°F6.9°C 37% 8.0 mph N12.9 kmh N 21.0 mph33.8 kmh 29.92 in1013.2 mb 0.00 in0.0 mm 0.00 in0.0 mm 0.00 in0.0 mm
06:00 PM 72.2°F22.3°C 43.8°F6.6°C 36% 16.0 mph NE25.7 kmh NE 19.0 mph30.6 kmh 29.92 in1013.2 mb 0.00 in0.0 mm 0.00 in0.0 mm 0.00 in0.0 mm
05:55 PM 72.2°F22.3°C 43.1°F6.2°C 35% 10.0 mph NNW16.1 kmh NNW 24.0 mph38.6 kmh 29.92 in1013.2 mb 0.00 in0.0 mm 0.00 in0.0 mm 0.00 in0.0 mm
05:50 PM 72.1°F22.3°C 43.7°F6.5°C 36% 10.0 mph N16.1 kmh N 13.0 mph20.9 kmh 29.91 in1012.9 mb 0.00 in0.0 mm 0.00 in0.0 mm 0.00 in0.0 mm
05:45 PM 71.9°F22.2°C 43.5°F6.4°C 36% 19.0 mph NNE30.6 kmh NNE 34.0 mph54.7 kmh 29.91 in1012.9 mb 0.00 in0.0 mm 0.00 in0.0 mm 0.00 in0.0 mm
05:40 PM 72.2°F22.3°C 43.1°F6.2°C 35% 27.0 mph NE43.5 kmh NE 27.0 mph43.5 kmh 29.91 in1012.9 mb 0.00 in0.0 mm 0.00 in0.0 mm 0.00 in0.0 mm
05:35 PM 72.2°F22.3°C 43.1°F6.2°C 35% 16.0 mph NE25.7 kmh NE 27.0 mph43.5 kmh 29.91 in1012.9 mb 0.00 in0.0 mm 0.00 in0.0 mm 0.00 in0.0 mm
05:30 PM 72.2°F22.3°C 43.8°F6.6°C 36% 9.0 mph ENE14.5 kmh ENE 22.0 mph35.4 kmh 29.90 in1012.5 mb 0.00 in0.0 mm 0.00 in0.0 mm 0.00 in0.0 mm
05:25 PM 72.1°F22.3°C 43.0°F6.1°C 35% 18.0 mph N29.0 kmh N 30.0 mph48.3 kmh 29.90 in1012.5 mb 0.00 in0.0 mm 0.00 in0.0 mm 0.00 in0.0 mm
05:20 PM 72.1°F22.3°C 43.0°F6.1°C 35% 14.0 mph N22.5 kmh N 16.0 mph25.7 kmh 29.90 in1012.5 mb 0.00 in0.0 mm 0.00 in0.0 mm 0.00 in0.0 mm
05:15 PM 71.3°F21.8°C 43.7°F6.5°C 37% 14.0 mph NE22.5 kmh NE 37.0 mph59.5 kmh 29.90 in1012.5 mb 0.00 in0.0 mm 0.00 in0.0 mm 0.00 in0.0 mm
05:10 PM 70.3°F21.3°C 43.5°F6.4°C 38% 23.0 mph NE37.0 kmh NE 27.0 mph43.5 kmh 29.90 in1012.5 mb 0.00 in0.0 mm 0.00 in0.0 mm 0.00 in0.0 mm
05:05 PM 69.5°F20.8°C 43.5°F6.4°C 39% 25.0 mph N40.2 kmh N 25.0 mph40.2 kmh 29.89 in1012.2 mb 0.00 in0.0 mm 0.00 in0.0 mm 0.00 in0.0 mm
05:00 PM 69.4°F20.8°C 43.4°F6.3°C 39% 16.0 mph NNE25.7 kmh NNE 19.0 mph30.6 kmh 29.90 in1012.5 mb 0.00 in0.0 mm 0.00 in0.0 mm 0.00 in0.0 mm
04:55 PM 69.3°F20.7°C 43.3°F6.3°C 39% 6.0 mph N9.7 kmh N 16.0 mph25.7 kmh 29.90 in1012.5 mb 0.00 in0.0 mm 0.00 in0.0 mm 0.00 in0.0 mm
04:50 PM 69.4°F20.8°C 42.7°F5.9°C 38% 12.0 mph NNE19.3 kmh NNE 14.0 mph22.5 kmh 29.91 in1012.9 mb 0.00 in0.0 mm 0.00 in0.0 mm 0.00 in0.0 mm
04:45 PM 69.4°F20.8°C 43.4°F6.3°C 39% 7.0 mph NNW11.3 kmh NNW 16.0 mph25.7 kmh 29.91 in1012.9 mb 0.00 in0.0 mm 0.00 in0.0 mm 0.00 in0.0 mm
04:40 PM 69.5°F20.8°C 42.8°F6.0°C 38% 6.0 mph NNE9.7 kmh NNE 13.0 mph20.9 kmh 29.90 in1012.5 mb 0.00 in0.0 mm 0.00 in0.0 mm 0.00 in0.0 mm
04:35 PM 69.9°F21.1°C 43.8°F6.6°C 39% 14.0 mph N22.5 kmh N 24.0 mph38.6 kmh 29.91 in1012.9 mb 0.00 in0.0 mm 0.00 in0.0 mm 0.00 in0.0 mm
04:30 PM 70.3°F21.3°C 43.5°F6.4°C 38% 10.0 mph N16.1 kmh N 18.0 mph29.0 kmh 29.90 in1012.5 mb 0.00 in0.0 mm 0.00 in0.0 mm 0.00 in0.0 mm
04:25 PM 70.9°F21.6°C 43.4°F6.3°C 37% 17.0 mph N27.4 kmh N 26.0 mph41.8 kmh 29.91 in1012.9 mb 0.00 in0.0 mm 0.00 in0.0 mm 0.00 in0.0 mm
04:20 PM 71.4°F21.9°C 44.5°F6.9°C 38% 17.0 mph N27.4 kmh N 18.0 mph29.0 kmh 29.90 in1012.5 mb 0.00 in0.0 mm 0.00 in0.0 mm 0.00 in0.0 mm
04:15 PM 71.9°F22.2°C 44.9°F7.2°C 38% 12.0 mph NNE19.3 kmh NNE 25.0 mph40.2 kmh 29.90 in1012.5 mb 0.00 in0.0 mm 0.00 in0.0 mm 0.00 in0.0 mm
04:10 PM 72.0°F22.2°C 45.0°F7.2°C 38% 9.0 mph NNE14.5 kmh NNE 18.0 mph29.0 kmh 29.90 in1012.5 mb 0.00 in0.0 mm 0.00 in0.0 mm 0.00 in0.0 mm
04:05 PM 72.6°F22.6°C 45.6°F7.6°C 38% 16.0 mph NE25.7 kmh NE 30.0 mph48.3 kmh 29.90 in1012.5 mb 0.00 in0.0 mm 0.00 in0.0 mm 0.00 in0.0 mm
04:00 PM 73.7°F23.2°C 45.8°F7.7°C 37% 17.0 mph ENE27.4 kmh ENE 27.0 mph43.5 kmh 29.89 in1012.2 mb 0.00 in0.0 mm 0.00 in0.0 mm 0.00 in0.0 mm
03:55 PM 73.4°F23.0°C 45.6°F7.6°C 37% 19.0 mph N30.6 kmh N 30.0 mph48.3 kmh 29.89 in1012.2 mb 0.00 in0.0 mm 0.00 in0.0 mm 0.00 in0.0 mm
03:50 PM 72.7°F22.6°C 45.0°F7.2°C 37% 23.0 mph NE37.0 kmh NE 23.0 mph37.0 kmh 29.89 in1012.2 mb 0.00 in0.0 mm 0.00 in0.0 mm 0.00 in0.0 mm
03:45 PM 72.9°F22.7°C 45.8°F7.7°C 38% 17.0 mph NNE27.4 kmh NNE 34.0 mph54.7 kmh 29.89 in1012.2 mb 0.00 in0.0 mm 0.00 in0.0 mm 0.00 in0.0 mm
03:40 PM 72.9°F22.7°C 45.8°F7.7°C 38% 23.0 mph NNE37.0 kmh NNE 34.0 mph54.7 kmh 29.89 in1012.2 mb 0.00 in0.0 mm 0.00 in0.0 mm 0.00 in0.0 mm
03:35 PM 72.7°F22.6°C 45.0°F7.2°C 37% 28.0 mph N45.1 kmh N 32.0 mph51.5 kmh 29.89 in1012.2 mb 0.00 in0.0 mm 0.00 in0.0 mm 0.00 in0.0 mm
03:30 PM 73.0°F22.8°C 45.2°F7.3°C 37% 13.0 mph ENE20.9 kmh ENE 28.0 mph45.1 kmh 29.89 in1012.2 mb 0.00 in0.0 mm 0.00 in0.0 mm 0.00 in0.0 mm
03:25 PM 73.1°F22.8°C 43.9°F6.6°C 35% 30.0 mph NE48.3 kmh NE 31.0 mph49.9 kmh 29.90 in1012.5 mb 0.00 in0.0 mm 0.00 in0.0 mm 0.00 in0.0 mm
03:20 PM 73.4°F23.0°C 45.6°F7.6°C 37% 15.0 mph NNE24.1 kmh NNE 15.0 mph24.1 kmh 29.90 in1012.5 mb 0.00 in0.0 mm 0.00 in0.0 mm 0.00 in0.0 mm
03:15 PM 72.9°F22.7°C 43.7°F6.5°C 35% 11.0 mph NE17.7 kmh NE 24.0 mph38.6 kmh 29.90 in1012.5 mb 0.00 in0.0 mm 0.00 in0.0 mm 0.00 in0.0 mm
03:10 PM 73.1°F22.8°C 44.6°F7.0°C 36% 23.0 mph NE37.0 kmh NE 23.0 mph37.0 kmh 29.90 in1012.5 mb 0.00 in0.0 mm 0.00 in0.0 mm 0.00 in0.0 mm
03:05 PM 72.8°F22.7°C 42.1°F5.6°C 33% 18.0 mph NE29.0 kmh NE 26.0 mph41.8 kmh 29.90 in1012.5 mb 0.00 in0.0 mm 0.00 in0.0 mm 0.00 in0.0 mm
03:00 PM 73.2°F22.9°C 43.9°F6.6°C 35% 10.0 mph NNE16.1 kmh NNE 17.0 mph27.4 kmh 29.90 in1012.5 mb 0.00 in0.0 mm 0.00 in0.0 mm 0.00 in0.0 mm
02:55 PM 73.4°F23.0°C 43.4°F6.3°C 34% 30.0 mph NNE48.3 kmh NNE 30.0 mph48.3 kmh 29.90 in1012.5 mb 0.00 in0.0 mm 0.00 in0.0 mm 0.00 in0.0 mm
02:50 PM 72.8°F22.7°C 43.6°F6.4°C 35% 6.0 mph N9.7 kmh N 20.0 mph32.2 kmh 29.90 in1012.5 mb 0.00 in0.0 mm 0.00 in0.0 mm 0.00 in0.0 mm
02:45 PM 72.7°F22.6°C 43.5°F6.4°C 35% 12.0 mph NE19.3 kmh NE 36.0 mph57.9 kmh 29.90 in1012.5 mb 0.00 in0.0 mm 0.00 in0.0 mm 0.00 in0.0 mm
02:40 PM 73.2°F22.9°C 45.4°F7.4°C 37% 17.0 mph ENE27.4 kmh ENE 20.0 mph32.2 kmh 29.90 in1012.5 mb 0.00 in0.0 mm 0.00 in0.0 mm 0.00 in0.0 mm
02:35 PM 72.6°F22.6°C 46.3°F7.9°C 39% 22.0 mph N35.4 kmh N 28.0 mph45.1 kmh 29.90 in1012.5 mb 0.00 in0.0 mm 0.00 in0.0 mm 0.00 in0.0 mm
02:30 PM 71.2°F21.8°C 44.3°F6.8°C 38% 18.0 mph NNE29.0 kmh NNE 23.0 mph37.0 kmh 29.90 in1012.5 mb 0.00 in0.0 mm 0.00 in0.0 mm 0.00 in0.0 mm
02:25 PM 71.6°F22.0°C 45.4°F7.4°C 39% 30.0 mph NNE48.3 kmh NNE 34.0 mph54.7 kmh 29.90 in1012.5 mb 0.00 in0.0 mm 0.00 in0.0 mm 0.00 in0.0 mm
02:20 PM 72.6°F22.6°C 46.9°F8.3°C 40% 20.0 mph NE32.2 kmh NE 26.0 mph41.8 kmh 29.89 in1012.2 mb 0.00 in0.0 mm 0.00 in0.0 mm 0.00 in0.0 mm
02:15 PM 73.9°F23.3°C 46.7°F8.2°C 38% 20.0 mph NE32.2 kmh NE 35.0 mph56.3 kmh 29.89 in1012.2 mb 0.00 in0.0 mm 0.00 in0.0 mm 0.00 in0.0 mm
02:10 PM 74.9°F23.8°C 45.4°F7.4°C 35% 12.0 mph NE19.3 kmh NE 22.0 mph35.4 kmh 29.89 in1012.2 mb 0.00 in0.0 mm 0.00 in0.0 mm 0.00 in0.0 mm
02:05 PM 75.6°F24.2°C 46.8°F8.2°C 36% 10.0 mph NE16.1 kmh NE 22.0 mph35.4 kmh 29.89 in1012.2 mb 0.00 in0.0 mm 0.00 in0.0 mm 0.00 in0.0 mm
02:00 PM 76.0°F24.4°C 45.6°F7.6°C 34% 7.0 mph E11.3 kmh E 14.0 mph22.5 kmh 29.90 in1012.5 mb 0.00 in0.0 mm 0.00 in0.0 mm 0.00 in0.0 mm
01:55 PM 75.0°F23.9°C 46.3°F7.9°C 36% 2.0 mph NNE3.2 kmh NNE 19.0 mph30.6 kmh 29.90 in1012.5 mb 0.00 in0.0 mm 0.00 in0.0 mm 0.00 in0.0 mm
01:50 PM 74.2°F23.4°C 44.1°F6.7°C 34% 4.0 mph NE6.4 kmh NE 6.0 mph9.7 kmh 29.90 in1012.5 mb 0.00 in0.0 mm 0.00 in0.0 mm 0.00 in0.0 mm
01:45 PM 73.9°F23.3°C 46.0°F7.8°C 37% 5.0 mph E8.0 kmh E 23.0 mph37.0 kmh 29.90 in1012.5 mb 0.00 in0.0 mm 0.00 in0.0 mm 0.00 in0.0 mm
01:40 PM 72.3°F22.4°C 46.7°F8.2°C 40% 3.0 mph E4.8 kmh E 3.0 mph4.8 kmh 29.90 in1012.5 mb 0.00 in0.0 mm 0.00 in0.0 mm 0.00 in0.0 mm
01:35 PM 72.6°F22.6°C 46.3°F7.9°C 39% 7.0 mph E11.3 kmh E 17.0 mph27.4 kmh 29.90 in1012.5 mb 0.00 in0.0 mm 0.00 in0.0 mm 0.00 in0.0 mm
01:30 PM 72.5°F22.5°C 44.8°F7.1°C 37% 11.0 mph ESE17.7 kmh ESE 11.0 mph17.7 kmh 29.90 in1012.5 mb 0.00 in0.0 mm 0.00 in0.0 mm 0.00 in0.0 mm
01:25 PM 72.6°F22.6°C 44.1°F6.7°C 36% 2.0 mph SE3.2 kmh SE 20.0 mph32.2 kmh 29.90 in1012.5 mb 0.00 in0.0 mm 0.00 in0.0 mm 0.00 in0.0 mm
01:20 PM 72.8°F22.7°C 44.3°F6.8°C 36% 9.0 mph SE14.5 kmh SE 10.0 mph16.1 kmh 29.90 in1012.5 mb 0.00 in0.0 mm 0.00 in0.0 mm 0.00 in0.0 mm
01:15 PM 73.6°F23.1°C 44.3°F6.8°C 35% 8.0 mph NE12.9 kmh NE 16.0 mph25.7 kmh 29.91 in1012.9 mb 0.00 in0.0 mm 0.00 in0.0 mm 0.00 in0.0 mm
01:10 PM 73.0°F22.8°C 46.6°F8.1°C 39% 10.0 mph E16.1 kmh E 13.0 mph20.9 kmh 29.91 in1012.9 mb 0.00 in0.0 mm 0.00 in0.0 mm 0.00 in0.0 mm
01:05 PM 72.2°F22.3°C 47.2°F8.4°C 41% 2.0 mph ESE3.2 kmh ESE 14.0 mph22.5 kmh 29.91 in1012.9 mb 0.00 in0.0 mm 0.00 in0.0 mm 0.00 in0.0 mm
01:00 PM 72.9°F22.7°C 45.8°F7.7°C 38% 8.0 mph ESE12.9 kmh ESE 11.0 mph17.7 kmh 29.91 in1012.9 mb 0.00 in0.0 mm 0.00 in0.0 mm 0.00 in0.0 mm
12:55 PM 73.2°F22.9°C 46.1°F7.8°C 38% 8.0 mph NE12.9 kmh NE 23.0 mph37.0 kmh 29.91 in1012.9 mb 0.00 in0.0 mm 0.00 in0.0 mm 0.00 in0.0 mm
12:50 PM 73.5°F23.1°C 47.1°F8.4°C 39% 12.0 mph ENE19.3 kmh ENE 14.0 mph22.5 kmh 29.91 in1012.9 mb 0.00 in0.0 mm 0.00 in0.0 mm 0.00 in0.0 mm
12:45 PM 72.9°F22.7°C 47.9°F8.8°C 41% 2.0 mph E3.2 kmh E 14.0 mph22.5 kmh 29.91 in1012.9 mb 0.00 in0.0 mm 0.00 in0.0 mm 0.00 in0.0 mm
12:40 PM 73.4°F23.0°C 46.3°F7.9°C 38% 5.0 mph E8.0 kmh E 14.0 mph22.5 kmh 29.91 in1012.9 mb 0.00 in0.0 mm 0.00 in0.0 mm 0.00 in0.0 mm
12:35 PM 72.4°F22.4°C 46.1°F7.8°C 39% 17.0 mph ENE27.4 kmh ENE 17.0 mph27.4 kmh 29.91 in1012.9 mb 0.00 in0.0 mm 0.00 in0.0 mm 0.00 in0.0 mm
12:30 PM 72.1°F22.3°C 44.4°F6.9°C 37% 5.0 mph NE8.0 kmh NE 9.0 mph14.5 kmh 29.91 in1012.9 mb 0.00 in0.0 mm 0.00 in0.0 mm 0.00 in0.0 mm
12:25 PM 72.5°F22.5°C 44.8°F7.1°C 37% 20.0 mph NE32.2 kmh NE 24.0 mph38.6 kmh 29.91 in1012.9 mb 0.00 in0.0 mm 0.00 in0.0 mm 0.00 in0.0 mm
12:20 PM 71.0°F21.7°C 46.8°F8.2°C 42% 9.0 mph ESE14.5 kmh ESE 11.0 mph17.7 kmh 29.91 in1012.9 mb 0.00 in0.0 mm 0.00 in0.0 mm 0.00 in0.0 mm
12:15 PM 70.4°F21.3°C 45.0°F7.2°C 40% 4.0 mph NNE6.4 kmh NNE 15.0 mph24.1 kmh 29.91 in1012.9 mb 0.00 in0.0 mm 0.00 in0.0 mm 0.00 in0.0 mm
12:10 PM 70.5°F21.4°C 45.7°F7.6°C 41% 11.0 mph NE17.7 kmh NE 14.0 mph22.5 kmh 29.91 in1012.9 mb 0.00 in0.0 mm 0.00 in0.0 mm 0.00 in0.0 mm
12:05 PM 70.8°F21.6°C 46.0°F7.8°C 41% 1.0 mph NNE1.6 kmh NNE 16.0 mph25.7 kmh 29.92 in1013.2 mb 0.00 in0.0 mm 0.00 in0.0 mm 0.00 in0.0 mm
12:00 PM 70.3°F21.3°C 46.8°F8.2°C 43% 10.0 mph NE16.1 kmh NE 16.0 mph25.7 kmh 29.92 in1013.2 mb 0.00 in0.0 mm 0.00 in0.0 mm 0.00 in0.0 mm
11:55 AM 69.6°F20.9°C 47.9°F8.8°C 46% 11.0 mph ESE17.7 kmh ESE 18.0 mph29.0 kmh 29.92 in1013.2 mb 0.00 in0.0 mm 0.00 in0.0 mm 0.00 in0.0 mm
11:50 AM 69.6°F20.9°C 46.8°F8.2°C 44% 14.0 mph NNE22.5 kmh NNE 18.0 mph29.0 kmh 29.91 in1012.9 mb 0.00 in0.0 mm 0.00 in0.0 mm 0.00 in0.0 mm
11:45 AM 69.8°F21.0°C 46.9°F8.3°C 44% 10.0 mph NE16.1 kmh NE 16.0 mph25.7 kmh 29.92 in1013.2 mb 0.00 in0.0 mm 0.00 in0.0 mm 0.00 in0.0 mm
11:40 AM 69.6°F20.9°C 47.3°F8.5°C 45% 15.0 mph ESE24.1 kmh ESE 15.0 mph24.1 kmh 29.92 in1013.2 mb 0.00 in0.0 mm 0.00 in0.0 mm 0.00 in0.0 mm
11:35 AM 69.4°F20.8°C 47.2°F8.4°C 45% 7.0 mph ENE11.3 kmh ENE 17.0 mph27.4 kmh 29.92 in1013.2 mb 0.00 in0.0 mm 0.00 in0.0 mm 0.00 in0.0 mm
11:30 AM 69.2°F20.7°C 47.0°F8.3°C 45% 1.0 mph NE1.6 kmh NE 9.0 mph14.5 kmh 29.92 in1013.2 mb 0.00 in0.0 mm 0.00 in0.0 mm 0.00 in0.0 mm
11:25 AM 69.3°F20.7°C 46.5°F8.1°C 44% 2.0 mph NE3.2 kmh NE 18.0 mph29.0 kmh 29.92 in1013.2 mb 0.00 in0.0 mm 0.00 in0.0 mm 0.00 in0.0 mm
11:20 AM 69.1°F20.6°C 47.5°F8.6°C 46% 9.0 mph NE14.5 kmh NE 13.0 mph20.9 kmh 29.92 in1013.2 mb 0.00 in0.0 mm 0.00 in0.0 mm 0.00 in0.0 mm
11:15 AM 69.2°F20.7°C 47.6°F8.7°C 46% 9.0 mph ENE14.5 kmh ENE 18.0 mph29.0 kmh 29.92 in1013.2 mb 0.00 in0.0 mm 0.00 in0.0 mm 0.00 in0.0 mm
11:10 AM 69.1°F20.6°C 47.5°F8.6°C 46% 12.0 mph NE19.3 kmh NE 18.0 mph29.0 kmh 29.92 in1013.2 mb 0.00 in0.0 mm 0.00 in0.0 mm 0.00 in0.0 mm
11:05 AM 68.8°F20.4°C 45.4°F7.4°C 43% 8.0 mph NNE12.9 kmh NNE 18.0 mph29.0 kmh 29.92 in1013.2 mb 0.00 in0.0 mm 0.00 in0.0 mm 0.00 in0.0 mm
11:00 AM 69.4°F20.8°C 47.2°F8.4°C 45% 9.0 mph ENE14.5 kmh ENE 10.0 mph16.1 kmh 29.92 in1013.2 mb 0.00 in0.0 mm 0.00 in0.0 mm 0.00 in0.0 mm
10:55 AM 68.9°F20.5°C 46.7°F8.2°C 45% 5.0 mph E8.0 kmh E 14.0 mph22.5 kmh 29.92 in1013.2 mb 0.00 in0.0 mm 0.00 in0.0 mm 0.00 in0.0 mm
10:50 AM 68.3°F20.2°C 46.2°F7.9°C 45% 4.0 mph ESE6.4 kmh ESE 7.0 mph11.3 kmh 29.92 in1013.2 mb 0.00 in0.0 mm 0.00 in0.0 mm 0.00 in0.0 mm
10:45 AM 68.1°F20.1°C 46.6°F8.1°C 46% 11.0 mph E17.7 kmh E 13.0 mph20.9 kmh 29.92 in1013.2 mb 0.00 in0.0 mm 0.00 in0.0 mm 0.00 in0.0 mm
10:40 AM 67.9°F19.9°C 46.4°F8.0°C 46% 7.0 mph ENE11.3 kmh ENE 13.0 mph20.9 kmh 29.92 in1013.2 mb 0.00 in0.0 mm 0.00 in0.0 mm 0.00 in0.0 mm
10:35 AM 68.3°F20.2°C 47.9°F8.8°C 48% 2.0 mph NE3.2 kmh NE 8.0 mph12.9 kmh 29.92 in1013.2 mb 0.00 in0.0 mm 0.00 in0.0 mm 0.00 in0.0 mm
10:30 AM 67.7°F19.8°C 47.3°F8.5°C 48% Calm Calm -- 29.92 in1013.2 mb 0.00 in0.0 mm 0.00 in0.0 mm 0.00 in0.0 mm
10:25 AM 67.7°F19.8°C 46.8°F8.2°C 47% 11.0 mph ENE17.7 kmh ENE 18.0 mph29.0 kmh 29.92 in1013.2 mb 0.00 in0.0 mm 0.00 in0.0 mm 0.00 in0.0 mm
10:20 AM 67.6°F19.8°C 48.3°F9.1°C 50% 12.0 mph E19.3 kmh E 18.0 mph29.0 kmh 29.92 in1013.2 mb 0.00 in0.0 mm 0.00 in0.0 mm 0.00 in0.0 mm
10:15 AM 67.2°F19.6°C 48.0°F8.9°C 50% 4.0 mph N6.4 kmh N 14.0 mph22.5 kmh 29.92 in1013.2 mb 0.00 in0.0 mm 0.00 in0.0 mm 0.00 in0.0 mm
10:10 AM 67.1°F19.5°C 48.4°F9.1°C 51% 6.0 mph NW9.7 kmh NW 8.0 mph12.9 kmh 29.92 in1013.2 mb 0.00 in0.0 mm 0.00 in0.0 mm 0.00 in0.0 mm
10:05 AM 67.0°F19.4°C 48.3°F9.1°C 51% 5.0 mph ENE8.0 kmh ENE 10.0 mph16.1 kmh 29.92 in1013.2 mb 0.00 in0.0 mm 0.00 in0.0 mm 0.00 in0.0 mm
10:00 AM 66.7°F19.3°C 48.5°F9.2°C 52% Calm Calm 2.0 mph3.2 kmh 29.92 in1013.2 mb 0.00 in0.0 mm 0.00 in0.0 mm 0.00 in0.0 mm
09:55 AM 66.5°F19.2°C 49.4°F9.7°C 54% 4.0 mph E6.4 kmh E 12.0 mph19.3 kmh 29.92 in1013.2 mb 0.00 in0.0 mm 0.00 in0.0 mm 0.00 in0.0 mm
09:50 AM 66.1°F18.9°C 50.0°F10.0°C 56% 2.0 mph ESE3.2 kmh ESE 5.0 mph8.0 kmh 29.92 in1013.2 mb 0.00 in0.0 mm 0.00 in0.0 mm 0.00 in0.0 mm
09:45 AM 65.6°F18.7°C 49.0°F9.4°C 55% Calm Calm 11.0 mph17.7 kmh 29.92 in1013.2 mb 0.00 in0.0 mm 0.00 in0.0 mm 0.00 in0.0 mm
09:40 AM 65.4°F18.6°C 49.3°F9.6°C 56% 8.0 mph NE12.9 kmh NE 11.0 mph17.7 kmh 29.92 in1013.2 mb 0.00 in0.0 mm 0.00 in0.0 mm 0.00 in0.0 mm
09:35 AM 65.3°F18.5°C 50.6°F10.3°C 59% 12.0 mph NE19.3 kmh NE 13.0 mph20.9 kmh 29.92 in1013.2 mb 0.00 in0.0 mm 0.00 in0.0 mm 0.00 in0.0 mm
09:30 AM 65.1°F18.4°C 49.5°F9.7°C 57% 9.0 mph ENE14.5 kmh ENE 11.0 mph17.7 kmh 29.92 in1013.2 mb 0.00 in0.0 mm 0.00 in0.0 mm 0.00 in0.0 mm
09:25 AM 64.8°F18.2°C 49.2°F9.6°C 57% Calm Calm 13.0 mph20.9 kmh 29.92 in1013.2 mb 0.00 in0.0 mm 0.00 in0.0 mm 0.00 in0.0 mm
09:20 AM 64.9°F18.3°C 49.8°F9.9°C 58% 7.0 mph NE11.3 kmh NE 8.0 mph12.9 kmh 29.92 in1013.2 mb 0.00 in0.0 mm 0.00 in0.0 mm 0.00 in0.0 mm
09:15 AM 64.7°F18.2°C 49.6°F9.8°C 58% Calm Calm 9.0 mph14.5 kmh 29.92 in1013.2 mb 0.00 in0.0 mm 0.00 in0.0 mm 0.00 in0.0 mm
09:10 AM 64.4°F18.0°C 50.2°F10.1°C 60% 7.0 mph E11.3 kmh E 7.0 mph11.3 kmh 29.92 in1013.2 mb 0.00 in0.0 mm 0.00 in0.0 mm 0.00 in0.0 mm
09:05 AM 64.0°F17.8°C 51.2°F10.7°C 63% 2.0 mph NE3.2 kmh NE 8.0 mph12.9 kmh 29.92 in1013.2 mb 0.00 in0.0 mm 0.00 in0.0 mm 0.00 in0.0 mm
09:00 AM 63.5°F17.5°C 50.3°F10.2°C 62% 4.0 mph NE6.4 kmh NE 4.0 mph6.4 kmh 29.92 in1013.2 mb 0.00 in0.0 mm 0.00 in0.0 mm 0.00 in0.0 mm
08:55 AM 63.1°F17.3°C 49.9°F9.9°C 62% 2.0 mph NNE3.2 kmh NNE 7.0 mph11.3 kmh 29.92 in1013.2 mb 0.00 in0.0 mm 0.00 in0.0 mm 0.00 in0.0 mm
08:50 AM 62.5°F16.9°C 48.4°F9.1°C 60% Calm Calm -- 29.92 in1013.2 mb 0.00 in0.0 mm 0.00 in0.0 mm 0.00 in0.0 mm
08:45 AM 61.8°F16.6°C 48.7°F9.3°C 62% Calm Calm 3.0 mph4.8 kmh 29.92 in1013.2 mb 0.00 in0.0 mm 0.00 in0.0 mm 0.00 in0.0 mm
08:40 AM 60.9°F16.1°C 48.7°F9.3°C 64% Calm Calm 3.0 mph4.8 kmh 29.92 in1013.2 mb 0.00 in0.0 mm 0.00 in0.0 mm 0.00 in0.0 mm
08:35 AM 60.3°F15.7°C 48.1°F8.9°C 64% Calm Calm 12.0 mph19.3 kmh 29.92 in1013.2 mb 0.00 in0.0 mm 0.00 in0.0 mm 0.00 in0.0 mm
08:30 AM 59.6°F15.3°C 48.2°F9.0°C 66% Calm Calm 1.0 mph1.6 kmh 29.92 in1013.2 mb 0.00 in0.0 mm 0.00 in0.0 mm 0.00 in0.0 mm
08:25 AM 59.0°F15.0°C 49.2°F9.6°C 70% 6.0 mph NW9.7 kmh NW 10.0 mph16.1 kmh 29.92 in1013.2 mb 0.00 in0.0 mm 0.00 in0.0 mm 0.00 in0.0 mm
08:20 AM 58.5°F14.7°C 49.5°F9.7°C 72% 8.0 mph NNW12.9 kmh NNW 8.0 mph12.9 kmh 29.92 in1013.2 mb 0.00 in0.0 mm 0.00 in0.0 mm 0.00 in0.0 mm
08:15 AM 58.0°F14.4°C 49.8°F9.9°C 74% 2.0 mph NW3.2 kmh NW 8.0 mph12.9 kmh 29.92 in1013.2 mb 0.00 in0.0 mm 0.00 in0.0 mm 0.00 in0.0 mm
08:10 AM 57.5°F14.2°C 50.0°F10.0°C 76% Calm Calm -- 29.92 in1013.2 mb 0.00 in0.0 mm 0.00 in0.0 mm 0.00 in0.0 mm
08:05 AM 57.1°F13.9°C 49.6°F9.8°C 76% 2.0 mph NNW3.2 kmh NNW 4.0 mph6.4 kmh 29.92 in1013.2 mb 0.00 in0.0 mm 0.00 in0.0 mm 0.00 in0.0 mm
08:00 AM 56.9°F13.8°C 49.4°F9.7°C 76% Calm Calm -- 29.92 in1013.2 mb 0.00 in0.0 mm 0.00 in0.0 mm 0.00 in0.0 mm
07:55 AM 56.5°F13.6°C 49.4°F9.7°C 77% 2.0 mph NNW3.2 kmh NNW 10.0 mph16.1 kmh 29.92 in1013.2 mb 0.00 in0.0 mm 0.00 in0.0 mm 0.00 in0.0 mm
07:50 AM 56.0°F13.3°C 49.3°F9.6°C 78% Calm Calm 4.0 mph6.4 kmh 29.92 in1013.2 mb 0.00 in0.0 mm 0.00 in0.0 mm 0.00 in0.0 mm
07:45 AM 55.5°F13.1°C 48.4°F9.1°C 77% Calm Calm 6.0 mph9.7 kmh 29.92 in1013.2 mb 0.00 in0.0 mm 0.00 in0.0 mm 0.00 in0.0 mm
07:40 AM 55.2°F12.9°C 48.1°F8.9°C 77% Calm Calm 2.0 mph3.2 kmh 29.92 in1013.2 mb 0.00 in0.0 mm 0.00 in0.0 mm 0.00 in0.0 mm
07:35 AM 55.0°F12.8°C 47.6°F8.7°C 76% 2.0 mph W3.2 kmh W 12.0 mph19.3 kmh 29.92 in1013.2 mb 0.00 in0.0 mm 0.00 in0.0 mm 0.00 in0.0 mm
07:30 AM 54.8°F12.7°C 47.7°F8.7°C 77% 2.0 mph NW3.2 kmh NW 8.0 mph12.9 kmh 29.92 in1013.2 mb 0.00 in0.0 mm 0.00 in0.0 mm 0.00 in0.0 mm
07:25 AM 54.6°F12.6°C 47.9°F8.8°C 78% 2.0 mph WNW3.2 kmh WNW 8.0 mph12.9 kmh 29.92 in1013.2 mb 0.00 in0.0 mm 0.00 in0.0 mm 0.00 in0.0 mm
07:20 AM 54.4°F12.4°C 47.7°F8.7°C 78% Calm Calm 8.0 mph12.9 kmh 29.92 in1013.2 mb 0.00 in0.0 mm 0.00 in0.0 mm 0.00 in0.0 mm
07:15 AM 54.1°F12.3°C 47.7°F8.7°C 79% 3.0 mph WSW4.8 kmh WSW 12.0 mph19.3 kmh 29.92 in1013.2 mb 0.00 in0.0 mm 0.00 in0.0 mm 0.00 in0.0 mm
07:10 AM 53.7°F12.1°C 47.7°F8.7°C 80% 6.0 mph SW9.7 kmh SW 6.0 mph9.7 kmh 29.91 in1012.9 mb 0.00 in0.0 mm 0.00 in0.0 mm 0.00 in0.0 mm
07:05 AM 53.4°F11.9°C 47.7°F8.7°C 81% 3.0 mph WSW4.8 kmh WSW 12.0 mph19.3 kmh 29.91 in1012.9 mb 0.00 in0.0 mm 0.00 in0.0 mm 0.00 in0.0 mm
07:00 AM 53.0°F11.7°C 47.7°F8.7°C 82% 4.0 mph W6.4 kmh W 4.0 mph6.4 kmh 29.91 in1012.9 mb 0.00 in0.0 mm 0.00 in0.0 mm 0.00 in0.0 mm
06:55 AM 52.6°F11.4°C 47.6°F8.7°C 83% 4.0 mph SW6.4 kmh SW 13.0 mph20.9 kmh 29.91 in1012.9 mb 0.00 in0.0 mm 0.00 in0.0 mm 0.00 in0.0 mm
06:50 AM 52.2°F11.2°C 47.5°F8.6°C 84% 8.0 mph WSW12.9 kmh WSW 8.0 mph12.9 kmh 29.91 in1012.9 mb 0.00 in0.0 mm 0.00 in0.0 mm 0.00 in0.0 mm
06:45 AM 51.9°F11.1°C 47.5°F8.6°C 85% 2.0 mph SW3.2 kmh SW 9.0 mph14.5 kmh 29.91 in1012.9 mb 0.00 in0.0 mm 0.00 in0.0 mm 0.00 in0.0 mm
06:40 AM 51.7°F10.9°C 47.7°F8.7°C 86% 8.0 mph WSW12.9 kmh WSW 8.0 mph12.9 kmh 29.91 in1012.9 mb 0.00 in0.0 mm 0.00 in0.0 mm 0.00 in0.0 mm
06:35 AM 51.4°F10.8°C 47.4°F8.6°C 86% 4.0 mph WSW6.4 kmh WSW 12.0 mph19.3 kmh 29.91 in1012.9 mb 0.00 in0.0 mm 0.00 in0.0 mm 0.00 in0.0 mm
06:30 AM 51.1°F10.6°C 47.4°F8.6°C 87% 12.0 mph SW19.3 kmh SW 12.0 mph19.3 kmh 29.91 in1012.9 mb 0.00 in0.0 mm 0.00 in0.0 mm 0.00 in0.0 mm
06:25 AM 50.8°F10.4°C 47.1°F8.4°C 87% 4.0 mph SW6.4 kmh SW 8.0 mph12.9 kmh 29.91 in1012.9 mb 0.00 in0.0 mm 0.00 in0.0 mm 0.00 in0.0 mm
06:20 AM 50.6°F10.3°C 47.2°F8.4°C 88% Calm Calm 5.0 mph8.0 kmh 29.91 in1012.9 mb 0.00 in0.0 mm 0.00 in0.0 mm 0.00 in0.0 mm
06:15 AM 50.4°F10.2°C 47.0°F8.3°C 88% 8.0 mph WSW12.9 kmh WSW 8.0 mph12.9 kmh 29.91 in1012.9 mb 0.00 in0.0 mm 0.00 in0.0 mm 0.00 in0.0 mm
06:10 AM 50.3°F10.2°C 46.9°F8.3°C 88% Calm Calm 2.0 mph3.2 kmh 29.91 in1012.9 mb 0.00 in0.0 mm 0.00 in0.0 mm 0.00 in0.0 mm
06:05 AM 50.2°F10.1°C 46.8°F8.2°C 88% 4.0 mph SW6.4 kmh SW 8.0 mph12.9 kmh 29.90 in1012.5 mb 0.00 in0.0 mm 0.00 in0.0 mm 0.00 in0.0 mm
06:00 AM 50.2°F10.1°C 46.8°F8.2°C 88% 2.0 mph SW3.2 kmh SW 4.0 mph6.4 kmh 29.90 in1012.5 mb 0.00 in0.0 mm 0.00 in0.0 mm 0.00 in0.0 mm
05:55 AM 50.2°F10.1°C 46.8°F8.2°C 88% Calm Calm 4.0 mph6.4 kmh 29.90 in1012.5 mb 0.00 in0.0 mm 0.00 in0.0 mm 0.00 in0.0 mm
05:50 AM 50.3°F10.2°C 46.6°F8.1°C 87% Calm Calm 2.0 mph3.2 kmh 29.90 in1012.5 mb 0.00 in0.0 mm 0.00 in0.0 mm 0.00 in0.0 mm
05:45 AM 50.4°F10.2°C 46.7°F8.2°C 87% 2.0 mph WSW3.2 kmh WSW 6.0 mph9.7 kmh 29.90 in1012.5 mb 0.00 in0.0 mm 0.00 in0.0 mm 0.00 in0.0 mm
05:40 AM 50.5°F10.3°C 46.8°F8.2°C 87% 4.0 mph WSW6.4 kmh WSW 4.0 mph6.4 kmh 29.89 in1012.2 mb 0.00 in0.0 mm 0.00 in0.0 mm 0.00 in0.0 mm
05:35 AM 50.6°F10.3°C 46.6°F8.1°C 86% Calm Calm 3.0 mph4.8 kmh 29.89 in1012.2 mb 0.00 in0.0 mm 0.00 in0.0 mm 0.00 in0.0 mm
05:30 AM 50.6°F10.3°C 46.6°F8.1°C 86% Calm Calm -- 29.90 in1012.5 mb 0.00 in0.0 mm 0.00 in0.0 mm 0.00 in0.0 mm
05:25 AM 50.7°F10.4°C 46.7°F8.2°C 86% Calm Calm -- 29.90 in1012.5 mb 0.00 in0.0 mm 0.00 in0.0 mm 0.00 in0.0 mm
05:20 AM 50.8°F10.4°C 46.8°F8.2°C 86% Calm Calm -- 29.90 in1012.5 mb 0.00 in0.0 mm 0.00 in0.0 mm 0.00 in0.0 mm
05:15 AM 50.7°F10.4°C 46.7°F8.2°C 86% Calm Calm 5.0 mph8.0 kmh 29.90 in1012.5 mb 0.00 in0.0 mm 0.00 in0.0 mm 0.00 in0.0 mm
05:10 AM 50.6°F10.3°C 46.6°F8.1°C 86% Calm Calm -- 29.90 in1012.5 mb 0.00 in0.0 mm 0.00 in0.0 mm 0.00 in0.0 mm
05:05 AM 50.5°F10.3°C 46.8°F8.2°C 87% Calm Calm 3.0 mph4.8 kmh 29.90 in1012.5 mb 0.00 in0.0 mm 0.00 in0.0 mm 0.00 in0.0 mm
05:00 AM 50.5°F10.3°C 46.8°F8.2°C 87% Calm Calm -- 29.89 in1012.2 mb 0.00 in0.0 mm 0.00 in0.0 mm 0.00 in0.0 mm
04:55 AM 50.4°F10.2°C 46.7°F8.2°C 87% Calm Calm 6.0 mph9.7 kmh 29.89 in1012.2 mb 0.00 in0.0 mm 0.00 in0.0 mm 0.00 in0.0 mm
04:50 AM 50.3°F10.2°C 46.6°F8.1°C 87% 5.0 mph WSW8.0 kmh WSW 5.0 mph8.0 kmh 29.89 in1012.2 mb 0.00 in0.0 mm 0.00 in0.0 mm 0.00 in0.0 mm
04:45 AM 50.3°F10.2°C 46.6°F8.1°C 87% Calm Calm 2.0 mph3.2 kmh 29.89 in1012.2 mb 0.00 in0.0 mm 0.00 in0.0 mm 0.00 in0.0 mm
04:40 AM 50.5°F10.3°C 46.8°F8.2°C 87% Calm Calm -- 29.89 in1012.2 mb 0.00 in0.0 mm 0.00 in0.0 mm 0.00 in0.0 mm
04:35 AM 50.6°F10.3°C 46.9°F8.3°C 87% Calm Calm -- 29.89 in1012.2 mb 0.00 in0.0 mm 0.00 in0.0 mm 0.00 in0.0 mm
04:30 AM 50.7°F10.4°C 47.0°F8.3°C 87% Calm Calm -- 29.89 in1012.2 mb 0.00 in0.0 mm 0.00 in0.0 mm 0.00 in0.0 mm
04:25 AM 50.7°F10.4°C 47.0°F8.3°C 87% Calm Calm -- 29.89 in1012.2 mb 0.00 in0.0 mm 0.00 in0.0 mm 0.00 in0.0 mm
04:20 AM 50.7°F10.4°C 47.0°F8.3°C 87% Calm Calm -- 29.89 in1012.2 mb 0.00 in0.0 mm 0.00 in0.0 mm 0.00 in0.0 mm
04:15 AM 50.8°F10.4°C 47.1°F8.4°C 87% Calm Calm 5.0 mph8.0 kmh 29.89 in1012.2 mb 0.00 in0.0 mm 0.00 in0.0 mm 0.00 in0.0 mm
04:10 AM 50.9°F10.5°C 47.2°F8.4°C 87% Calm Calm -- 29.89 in1012.2 mb 0.00 in0.0 mm 0.00 in0.0 mm 0.00 in0.0 mm
04:05 AM 51.0°F10.6°C 47.3°F8.5°C 87% Calm Calm -- 29.89 in1012.2 mb 0.00 in0.0 mm 0.00 in0.0 mm 0.00 in0.0 mm
04:00 AM 51.1°F10.6°C 47.4°F8.6°C 87% Calm Calm -- 29.89 in1012.2 mb 0.00 in0.0 mm 0.00 in0.0 mm 0.00 in0.0 mm
03:55 AM 51.2°F10.7°C 47.5°F8.6°C 87% Calm Calm -- 29.89 in1012.2 mb 0.00 in0.0 mm 0.00 in0.0 mm 0.00 in0.0 mm
03:50 AM 51.3°F10.7°C 47.3°F8.5°C 86% Calm Calm -- 29.89 in1012.2 mb 0.00 in0.0 mm 0.00 in0.0 mm 0.00 in0.0 mm
03:45 AM 51.4°F10.8°C 47.4°F8.6°C 86% Calm Calm -- 29.89 in1012.2 mb 0.00 in0.0 mm 0.00 in0.0 mm 0.00 in0.0 mm
03:40 AM 51.5°F10.8°C 47.5°F8.6°C 86% Calm Calm -- 29.89 in1012.2 mb 0.00 in0.0 mm 0.00 in0.0 mm 0.00 in0.0 mm
03:35 AM 51.7°F10.9°C 47.7°F8.7°C 86% Calm Calm -- 29.88 in1011.9 mb 0.00 in0.0 mm 0.00 in0.0 mm 0.00 in0.0 mm
03:30 AM 51.8°F11.0°C 47.8°F8.8°C 86% Calm Calm -- 29.88 in1011.9 mb 0.00 in0.0 mm 0.00 in0.0 mm 0.00 in0.0 mm
03:25 AM 52.0°F11.1°C 47.6°F8.7°C 85% Calm Calm -- 29.88 in1011.9 mb 0.00 in0.0 mm 0.00 in0.0 mm 0.00 in0.0 mm
03:20 AM 52.3°F11.3°C 47.9°F8.8°C 85% Calm Calm -- 29.89 in1012.2 mb 0.00 in0.0 mm 0.00 in0.0 mm 0.00 in0.0 mm
03:15 AM 52.6°F11.4°C 48.2°F9.0°C 85% Calm Calm -- 29.89 in1012.2 mb 0.00 in0.0 mm 0.00 in0.0 mm 0.00 in0.0 mm
03:10 AM 52.7°F11.5°C 48.3°F9.1°C 85% Calm Calm -- 29.89 in1012.2 mb 0.00 in0.0 mm 0.00 in0.0 mm 0.00 in0.0 mm
03:05 AM 52.8°F11.6°C 48.4°F9.1°C 85% Calm Calm -- 29.89 in1012.2 mb 0.00 in0.0 mm 0.00 in0.0 mm 0.00 in0.0 mm
03:00 AM 52.8°F11.6°C 48.4°F9.1°C 85% Calm Calm -- 29.89 in1012.2 mb 0.00 in0.0 mm 0.00 in0.0 mm 0.00 in0.0 mm
02:55 AM 52.9°F11.6°C 48.5°F9.2°C 85% Calm Calm -- 29.89 in1012.2 mb 0.00 in0.0 mm 0.00 in0.0 mm 0.00 in0.0 mm
02:50 AM 53.0°F11.7°C 48.6°F9.2°C 85% Calm Calm -- 29.89 in1012.2 mb 0.00 in0.0 mm 0.00 in0.0 mm 0.00 in0.0 mm
02:45 AM 53.1°F11.7°C 48.7°F9.3°C 85% Calm Calm 4.0 mph6.4 kmh 29.89 in1012.2 mb 0.00 in0.0 mm 0.00 in0.0 mm 0.00 in0.0 mm
02:40 AM 53.2°F11.8°C 48.5°F9.2°C 84% 3.0 mph SW4.8 kmh SW 4.0 mph6.4 kmh 29.89 in1012.2 mb 0.00 in0.0 mm 0.00 in0.0 mm 0.00 in0.0 mm
02:35 AM 53.4°F11.9°C 48.7°F9.3°C 84% Calm Calm 4.0 mph6.4 kmh 29.89 in1012.2 mb 0.00 in0.0 mm 0.00 in0.0 mm 0.00 in0.0 mm
02:30 AM 53.5°F11.9°C 48.5°F9.2°C 83% Calm Calm -- 29.89 in1012.2 mb 0.00 in0.0 mm 0.00 in0.0 mm 0.00 in0.0 mm
02:25 AM 53.7°F12.1°C 48.7°F9.3°C 83% 2.0 mph WSW3.2 kmh WSW 4.0 mph6.4 kmh 29.89 in1012.2 mb 0.00 in0.0 mm 0.00 in0.0 mm 0.00 in0.0 mm
02:20 AM 54.0°F12.2°C 48.6°F9.2°C 82% Calm Calm -- 29.89 in1012.2 mb 0.00 in0.0 mm 0.00 in0.0 mm 0.00 in0.0 mm
02:15 AM 54.2°F12.3°C 48.5°F9.2°C 81% Calm Calm -- 29.89 in1012.2 mb 0.00 in0.0 mm 0.00 in0.0 mm 0.00 in0.0 mm
02:10 AM 54.4°F12.4°C 48.7°F9.3°C 81% Calm Calm -- 29.89 in1012.2 mb 0.00 in0.0 mm 0.00 in0.0 mm 0.00 in0.0 mm
02:05 AM 54.5°F12.5°C 48.8°F9.3°C 81% Calm Calm 4.0 mph6.4 kmh 29.88 in1011.9 mb 0.00 in0.0 mm 0.00 in0.0 mm 0.00 in0.0 mm
02:00 AM 54.6°F12.6°C 48.6°F9.2°C 80% Calm Calm -- 29.89 in1012.2 mb 0.00 in0.0 mm 0.00 in0.0 mm 0.00 in0.0 mm
01:55 AM 54.6°F12.6°C 48.6°F9.2°C 80% Calm Calm 2.0 mph3.2 kmh 29.89 in1012.2 mb 0.00 in0.0 mm 0.00 in0.0 mm 0.00 in0.0 mm
01:50 AM 54.7°F12.6°C 48.3°F9.1°C 79% Calm Calm -- 29.89 in1012.2 mb 0.00 in0.0 mm 0.00 in0.0 mm 0.00 in0.0 mm
01:45 AM 54.8°F12.7°C 48.4°F9.1°C 79% Calm Calm -- 29.89 in1012.2 mb 0.00 in0.0 mm 0.00 in0.0 mm 0.00 in0.0 mm
01:40 AM 54.8°F12.7°C 48.4°F9.1°C 79% Calm Calm -- 29.89 in1012.2 mb 0.00 in0.0 mm 0.00 in0.0 mm 0.00 in0.0 mm
01:35 AM 54.8°F12.7°C 48.1°F8.9°C 78% Calm Calm 3.0 mph4.8 kmh 29.90 in1012.5 mb 0.00 in0.0 mm 0.00 in0.0 mm 0.00 in0.0 mm
01:30 AM 54.8°F12.7°C 48.1°F8.9°C 78% Calm Calm -- 29.90 in1012.5 mb 0.00 in0.0 mm 0.00 in0.0 mm 0.00 in0.0 mm
01:25 AM 54.9°F12.7°C 48.2°F9.0°C 78% Calm Calm 2.0 mph3.2 kmh 29.90 in1012.5 mb 0.00 in0.0 mm 0.00 in0.0 mm 0.00 in0.0 mm
01:20 AM 55.0°F12.8°C 47.9°F8.8°C 77% Calm Calm -- 29.89 in1012.2 mb 0.00 in0.0 mm 0.00 in0.0 mm 0.00 in0.0 mm
01:15 AM 55.2°F12.9°C 48.1°F8.9°C 77% Calm Calm -- 29.89 in1012.2 mb 0.00 in0.0 mm 0.00 in0.0 mm 0.00 in0.0 mm
01:10 AM 55.3°F12.9°C 48.2°F9.0°C 77% Calm Calm -- 29.89 in1012.2 mb 0.00 in0.0 mm 0.00 in0.0 mm 0.00 in0.0 mm
01:05 AM 55.5°F13.1°C 48.4°F9.1°C 77% Calm Calm 4.0 mph6.4 kmh 29.89 in1012.2 mb 0.00 in0.0 mm 0.00 in0.0 mm 0.00 in0.0 mm
01:00 AM 55.6°F13.1°C 48.2°F9.0°C 76% Calm Calm 4.0 mph6.4 kmh 29.89 in1012.2 mb 0.00 in0.0 mm 0.00 in0.0 mm 0.00 in0.0 mm
12:55 AM 55.8°F13.2°C 48.0°F8.9°C 75% 2.0 mph N3.2 kmh N 4.0 mph6.4 kmh 29.89 in1012.2 mb 0.00 in0.0 mm 0.00 in0.0 mm 0.00 in0.0 mm
12:50 AM 55.9°F13.3°C 48.1°F8.9°C 75% Calm Calm 2.0 mph3.2 kmh 29.89 in1012.2 mb 0.00 in0.0 mm 0.00 in0.0 mm 0.00 in0.0 mm
12:45 AM 56.2°F13.4°C 48.4°F9.1°C 75% 4.0 mph N6.4 kmh N 4.0 mph6.4 kmh 29.89 in1012.2 mb 0.00 in0.0 mm 0.00 in0.0 mm 0.00 in0.0 mm
12:40 AM 56.3°F13.5°C 48.1°F8.9°C 74% Calm Calm -- 29.89 in1012.2 mb 0.00 in0.0 mm 0.00 in0.0 mm 0.00 in0.0 mm
12:35 AM 56.5°F13.6°C 48.3°F9.1°C 74% Calm Calm 8.0 mph12.9 kmh 29.89 in1012.2 mb 0.00 in0.0 mm 0.00 in0.0 mm 0.00 in0.0 mm
12:30 AM 56.7°F13.7°C 48.2°F9.0°C 73% 6.0 mph NNW9.7 kmh NNW 6.0 mph9.7 kmh 29.89 in1012.2 mb 0.00 in0.0 mm 0.00 in0.0 mm 0.00 in0.0 mm
12:25 AM 56.8°F13.8°C 48.3°F9.1°C 73% 4.0 mph N6.4 kmh N 10.0 mph16.1 kmh 29.89 in1012.2 mb 0.00 in0.0 mm 0.00 in0.0 mm 0.00 in0.0 mm
12:20 AM 57.0°F13.9°C 48.4°F9.1°C 73% 7.0 mph NW11.3 kmh NW 9.0 mph14.5 kmh 29.89 in1012.2 mb 0.00 in0.0 mm 0.00 in0.0 mm 0.00 in0.0 mm
12:15 AM 57.2°F14.0°C 48.6°F9.2°C 73% 5.0 mph N8.0 kmh N 22.0 mph35.4 kmh 29.88 in1011.9 mb 0.00 in0.0 mm 0.00 in0.0 mm 0.00 in0.0 mm
12:10 AM 57.4°F14.1°C 48.8°F9.3°C 73% 14.0 mph NW22.5 kmh NW 22.0 mph35.4 kmh 29.88 in1011.9 mb 0.00 in0.0 mm 0.00 in0.0 mm 0.00 in0.0 mm
12:05 AM 57.6°F14.2°C 49.0°F9.4°C 73% 10.0 mph NW16.1 kmh NW 24.0 mph38.6 kmh 29.88 in1011.9 mb 0.00 in0.0 mm 0.00 in0.0 mm 0.00 in0.0 mm
12:00 AM 57.8°F14.3°C 49.2°F9.6°C 73% 13.0 mph NNW20.9 kmh NNW 24.0 mph38.6 kmh 29.88 in1011.9 mb 0.00 in0.0 mm 0.00 in0.0 mm 0.00 in0.0 mm